createdAt,value
2017-02-26T00:00:31.103Z,56.89
2017-02-26T00:01:21.843Z,56.88
2017-02-26T00:02:33.146Z,56.90
2017-02-26T00:03:39.529Z,57.12
2017-02-26T00:04:39.590Z,57.58
2017-02-26T00:05:45.902Z,57.05
2017-02-26T00:06:39.520Z,56.96
2017-02-26T00:07:49.880Z,57.65
2017-02-26T00:08:33.393Z,57.81
2017-02-26T00:09:39.940Z,57.87
2017-02-26T00:10:39.021Z,57.91
2017-02-26T00:11:50.499Z,57.95
2017-02-26T00:12:48.140Z,57.97
2017-02-26T00:13:44.356Z,58.01
2017-02-26T00:14:43.965Z,58.03
2017-02-26T00:15:49.101Z,58.04
2017-02-26T00:16:45.408Z,58.05
2017-02-26T00:17:46.052Z,58.05
2017-02-26T00:18:44.996Z,58.06
2017-02-26T00:19:46.264Z,58.08
2017-02-26T00:20:45.326Z,58.08
2017-02-26T00:21:46.491Z,58.10
2017-02-26T00:22:47.212Z,58.10
2017-02-26T00:23:44.947Z,58.10
2017-02-26T00:24:44.437Z,58.10
2017-02-26T00:25:44.625Z,58.11
2017-02-26T00:26:46.304Z,58.09
2017-02-26T00:27:48.202Z,57.36
2017-02-26T00:28:58.486Z,57.21
2017-02-26T00:29:44.624Z,57.12
2017-02-26T00:30:45.565Z,57.11
2017-02-26T00:31:54.797Z,57.78
2017-02-26T00:32:59.373Z,57.91
2017-02-26T00:33:45.668Z,57.98
2017-02-26T00:34:49.612Z,58.03
2017-02-26T00:35:49.694Z,58.06
2017-02-26T00:36:54.787Z,58.08
2017-02-26T00:37:49.051Z,58.09
2017-02-26T00:39:00.503Z,58.09
2017-02-26T00:39:55.353Z,58.01
2017-02-26T00:40:50.203Z,57.38
2017-02-26T00:41:42.304Z,57.42
2017-02-26T00:42:49.938Z,57.15
2017-02-26T00:43:45.468Z,57.04
2017-02-26T00:44:50.521Z,57.07
2017-02-26T00:45:49.988Z,57.06
2017-02-26T00:46:51.075Z,57.03
2017-02-26T00:47:46.306Z,57.73
2017-02-26T00:48:46.662Z,57.89
2017-02-26T00:49:49.107Z,57.96
2017-02-26T00:50:47.344Z,58.01
2017-02-26T00:51:44.805Z,58.05
2017-02-26T00:52:44.102Z,58.07
2017-02-26T00:53:46.038Z,58.11
2017-02-26T00:54:50.094Z,58.08
2017-02-26T00:55:49.793Z,57.39
2017-02-26T00:56:45.278Z,57.23
2017-02-26T00:57:46.834Z,57.14
2017-02-26T00:58:44.645Z,57.11
2017-02-26T01:00:06.175Z,57.39
2017-02-26T01:00:51.336Z,57.83
2017-02-26T01:01:47.679Z,57.94
2017-02-26T01:02:52.881Z,58.00
2017-02-26T01:04:30.170Z,58.06
2017-02-26T01:05:18.283Z,58.10
2017-02-26T01:06:00.178Z,58.11
2017-02-26T01:06:59.191Z,58.12
2017-02-26T01:07:44.212Z,58.14
2017-02-26T01:09:03.244Z,58.16
2017-02-26T01:10:01.828Z,58.16
2017-02-26T01:11:24.095Z,58.17
2017-02-26T01:11:49.216Z,58.19
2017-02-26T01:12:48.109Z,58.19
2017-02-26T01:14:04.580Z,58.20
2017-02-26T01:14:46.854Z,58.20
2017-02-26T01:15:53.566Z,58.20
2017-02-26T01:16:54.499Z,58.20
2017-02-26T01:17:59.864Z,58.20
2017-02-26T01:19:00.356Z,58.20
2017-02-26T01:20:53.508Z,58.21
2017-02-26T01:21:53.943Z,58.21
2017-02-26T01:22:51.034Z,58.22
2017-02-26T01:23:49.006Z,58.21
2017-02-26T01:24:48.356Z,58.21
2017-02-26T01:25:48.545Z,58.22
2017-02-26T01:26:59.191Z,58.22
2017-02-26T01:27:45.806Z,58.24
2017-02-26T01:28:39.380Z,58.23
2017-02-26T01:29:44.704Z,58.24
2017-02-26T01:30:46.008Z,58.24
2017-02-26T01:31:50.079Z,58.23
2017-02-26T01:32:39.329Z,58.24
2017-02-26T01:33:53.688Z,58.26
2017-02-26T01:34:43.858Z,58.26
2017-02-26T01:35:47.368Z,58.26
2017-02-26T01:36:44.401Z,58.27
2017-02-26T01:37:45.895Z,58.27
2017-02-26T01:38:47.425Z,58.27
2017-02-26T01:39:48.891Z,58.27
2017-02-26T01:40:54.141Z,58.26
2017-02-26T01:41:46.868Z,58.28
2017-02-26T01:43:00.519Z,58.28
2017-02-26T01:43:50.083Z,58.28
2017-02-26T01:44:51.298Z,58.30
2017-02-26T01:45:48.935Z,58.29
2017-02-26T01:46:55.757Z,58.28
2017-02-26T01:47:59.274Z,58.29
2017-02-26T01:48:44.458Z,58.28
2017-02-26T01:49:45.305Z,58.29
2017-02-26T01:50:59.453Z,58.29
2017-02-26T01:51:58.100Z,58.29
2017-02-26T01:52:48.913Z,58.30
2017-02-26T01:53:49.433Z,58.30
2017-02-26T01:54:48.873Z,58.30
2017-02-26T01:55:48.470Z,58.31
2017-02-26T01:56:56.331Z,58.30
2017-02-26T01:57:46.494Z,58.30
2017-02-26T01:58:49.611Z,58.31
2017-02-26T01:59:45.948Z,58.30
2017-02-26T02:00:49.483Z,58.32
2017-02-26T02:01:49.625Z,58.31
2017-02-26T02:02:49.481Z,58.31
2017-02-26T02:03:46.448Z,58.32
2017-02-26T02:04:42.721Z,58.31
2017-02-26T02:05:32.483Z,58.32
2017-02-26T02:06:16.788Z,58.33
2017-02-26T02:07:17.725Z,58.33
2017-02-26T02:08:18.236Z,58.33
2017-02-26T02:09:30.416Z,58.33
2017-02-26T02:10:31.336Z,58.35
2017-02-26T02:11:33.547Z,58.35
2017-02-26T02:12:21.231Z,58.36
2017-02-26T02:13:18.482Z,58.35
2017-02-26T02:14:37.419Z,58.35
2017-02-26T02:15:26.643Z,58.35
2017-02-26T02:16:27.910Z,58.35
2017-02-26T02:17:18.591Z,58.37
2017-02-26T02:18:22.742Z,58.36
2017-02-26T02:19:27.065Z,58.35
2017-02-26T02:20:33.167Z,58.35
2017-02-26T02:21:23.429Z,57.71
2017-02-26T02:22:29.371Z,57.47
2017-02-26T02:23:33.216Z,57.36
2017-02-26T02:24:28.890Z,57.31
2017-02-26T02:25:32.443Z,57.26
2017-02-26T02:26:28.370Z,57.24
2017-02-26T02:27:27.028Z,57.22
2017-02-26T02:28:26.848Z,57.20
2017-02-26T02:29:36.381Z,57.19
2017-02-26T02:30:21.649Z,57.24
2017-02-26T02:31:29.225Z,57.90
2017-02-26T02:32:32.100Z,58.07
2017-02-26T02:33:27.548Z,58.17
2017-02-26T02:34:21.875Z,58.21
2017-02-26T02:35:49.266Z,58.27
2017-02-26T02:36:45.498Z,57.53
2017-02-26T02:37:39.773Z,57.38
2017-02-26T02:38:49.517Z,57.36
2017-02-26T02:39:44.869Z,58.02
2017-02-26T02:40:39.283Z,58.15
2017-02-26T02:41:50.148Z,58.22
2017-02-26T02:42:44.649Z,58.26
2017-02-26T02:43:40.811Z,58.29
2017-02-26T02:44:45.848Z,58.32
2017-02-26T02:45:39.063Z,58.32
2017-02-26T02:46:46.984Z,58.34
2017-02-26T02:47:45.533Z,58.36
2017-02-26T02:48:50.336Z,58.37
2017-02-26T02:49:53.026Z,58.37
2017-02-26T02:50:45.707Z,58.38
2017-02-26T02:51:50.741Z,58.29
2017-02-26T02:52:53.778Z,57.61
2017-02-26T02:53:45.183Z,57.49
2017-02-26T02:54:45.595Z,57.47
2017-02-26T02:55:44.614Z,58.09
2017-02-26T02:56:45.375Z,58.22
2017-02-26T02:57:49.760Z,58.28
2017-02-26T02:58:49.614Z,58.33
2017-02-26T02:59:58.589Z,58.36
2017-02-26T03:00:49.053Z,58.38
2017-02-26T03:01:44.041Z,58.39
2017-02-26T03:02:44.061Z,58.40
2017-02-26T03:03:49.270Z,58.41
2017-02-26T03:04:49.863Z,58.41
2017-02-26T03:05:39.820Z,58.43
2017-02-26T03:07:05.009Z,58.42
2017-02-26T03:07:48.176Z,58.44
2017-02-26T03:08:50.277Z,58.44
2017-02-26T03:09:51.151Z,58.44
2017-02-26T03:10:50.340Z,58.44
2017-02-26T03:11:50.661Z,58.44
2017-02-26T03:12:59.572Z,58.46
2017-02-26T03:13:49.392Z,58.44
2017-02-26T03:14:51.034Z,58.46
2017-02-26T03:15:44.953Z,58.46
2017-02-26T03:16:49.960Z,58.47
2017-02-26T03:17:49.353Z,58.32
2017-02-26T03:18:59.804Z,57.71
2017-02-26T03:19:43.533Z,57.54
2017-02-26T03:20:45.084Z,57.46
2017-02-26T03:21:49.640Z,57.44
2017-02-26T03:22:50.397Z,58.11
2017-02-26T03:23:59.264Z,58.27
2017-02-26T03:25:00.960Z,58.32
2017-02-26T03:25:45.368Z,58.38
2017-02-26T03:26:43.852Z,58.40
2017-02-26T03:27:45.606Z,58.42
2017-02-26T03:28:49.603Z,58.44
2017-02-26T03:29:46.273Z,58.43
2017-02-26T03:30:45.345Z,58.44
2017-02-26T03:31:48.949Z,58.46
2017-02-26T03:32:44.743Z,58.47
2017-02-26T03:33:51.188Z,58.47
2017-02-26T03:34:53.699Z,58.48
2017-02-26T03:35:28.635Z,58.48
2017-02-26T03:36:32.897Z,58.49
2017-02-26T03:37:24.680Z,58.49
2017-02-26T03:38:31.239Z,58.48
2017-02-26T03:39:30.663Z,58.49
2017-02-26T03:40:31.776Z,58.50
2017-02-26T03:41:29.517Z,58.50
2017-02-26T03:42:27.822Z,58.50
2017-02-26T03:43:26.289Z,58.50
2017-02-26T03:44:29.880Z,58.50
2017-02-26T03:45:21.633Z,58.51
2017-02-26T03:46:27.789Z,58.50
2017-02-26T03:47:25.967Z,58.51
2017-02-26T03:48:21.608Z,58.51
2017-02-26T03:49:19.409Z,58.53
2017-02-26T03:50:33.427Z,58.52
2017-02-26T03:51:28.692Z,58.51
2017-02-26T03:52:38.211Z,58.52
2017-02-26T03:53:27.943Z,58.52
2017-02-26T03:54:23.660Z,58.53
2017-02-26T03:55:22.472Z,58.53
2017-02-26T03:56:20.390Z,58.53
2017-02-26T03:57:19.261Z,58.52
2017-02-26T03:58:44.652Z,58.52
2017-02-26T04:00:00.716Z,58.54
2017-02-26T04:00:50.161Z,58.53
2017-02-26T04:02:08.691Z,58.54
2017-02-26T04:02:53.760Z,58.52
2017-02-26T04:03:50.660Z,58.53
2017-02-26T04:04:45.410Z,58.54
2017-02-26T04:05:57.318Z,58.55
2017-02-26T04:06:45.088Z,58.47
2017-02-26T04:07:54.360Z,57.78
2017-02-26T04:08:45.338Z,57.62
2017-02-26T04:09:49.565Z,57.54
2017-02-26T04:10:49.483Z,57.49
2017-02-26T04:11:45.508Z,57.45
2017-02-26T04:12:50.679Z,57.43
2017-02-26T04:13:49.645Z,57.39
2017-02-26T04:14:55.523Z,57.42
2017-02-26T04:15:39.924Z,58.10
2017-02-26T04:16:51.996Z,58.26
2017-02-26T04:17:47.249Z,58.36
2017-02-26T04:18:54.573Z,58.40
2017-02-26T04:19:45.426Z,58.44
2017-02-26T04:21:06.148Z,58.45
2017-02-26T04:21:45.344Z,58.45
2017-02-26T04:22:58.740Z,57.97
2017-02-26T04:23:53.914Z,58.34
2017-02-26T04:24:54.505Z,58.42
2017-02-26T04:25:40.290Z,58.45
2017-02-26T04:26:50.199Z,58.47
2017-02-26T04:27:49.615Z,58.49
2017-02-26T04:28:49.920Z,58.50
2017-02-26T04:29:46.348Z,58.51
2017-02-26T04:30:59.647Z,58.51
2017-02-26T04:31:48.376Z,58.52
2017-02-26T04:32:49.209Z,58.53
2017-02-26T04:33:45.493Z,58.53
2017-02-26T04:34:50.044Z,58.54
2017-02-26T04:35:45.128Z,58.54
2017-02-26T04:36:49.522Z,58.53
2017-02-26T04:37:50.200Z,58.54
2017-02-26T04:39:00.472Z,58.54
2017-02-26T04:39:54.406Z,58.55
2017-02-26T04:40:40.910Z,58.53
2017-02-26T04:41:45.638Z,58.55
2017-02-26T04:43:00.171Z,58.55
2017-02-26T04:43:58.696Z,58.55
2017-02-26T04:44:50.133Z,58.54
2017-02-26T04:46:00.190Z,58.56
2017-02-26T04:46:58.961Z,58.54
2017-02-26T04:47:59.389Z,58.54
2017-02-26T04:48:43.842Z,58.56
2017-02-26T04:49:50.208Z,58.56
2017-02-26T04:50:45.346Z,58.57
2017-02-26T04:51:45.380Z,58.57
2017-02-26T04:53:01.583Z,58.57
2017-02-26T04:53:57.203Z,58.59
2017-02-26T04:54:43.510Z,58.58
2017-02-26T04:55:57.662Z,58.59
2017-02-26T04:56:54.480Z,58.58
2017-02-26T04:57:44.789Z,58.57
2017-02-26T04:58:44.300Z,58.58
2017-02-26T04:59:28.080Z,58.59
2017-02-26T05:00:30.750Z,58.60
2017-02-26T05:01:30.188Z,58.59
2017-02-26T05:02:21.818Z,58.59
2017-02-26T05:03:26.659Z,58.60
2017-02-26T05:04:27.166Z,58.59
2017-02-26T05:05:32.584Z,58.60
2017-02-26T05:06:49.337Z,58.58
2017-02-26T05:07:50.029Z,58.59
2017-02-26T05:09:06.136Z,58.60
2017-02-26T05:09:55.184Z,58.59
2017-02-26T05:10:49.245Z,58.60
2017-02-26T05:11:46.052Z,58.59
2017-02-26T05:12:46.651Z,58.60
2017-02-26T05:13:51.218Z,58.61
2017-02-26T05:16:15.637Z,58.61
2017-02-26T05:16:54.882Z,58.61
2017-02-26T05:17:53.871Z,58.62
2017-02-26T05:18:59.526Z,58.63
2017-02-26T05:19:51.171Z,58.62
2017-02-26T05:21:47.751Z,58.61
2017-02-26T05:23:00.614Z,58.61
2017-02-26T05:23:44.738Z,58.60
2017-02-26T05:24:49.816Z,58.61
2017-02-26T05:25:59.979Z,58.62
2017-02-26T05:27:02.541Z,58.61
2017-02-26T05:27:53.802Z,58.61
2017-02-26T05:29:09.018Z,58.60
2017-02-26T05:29:48.127Z,58.60
2017-02-26T05:30:48.792Z,58.60
2017-02-26T05:31:50.881Z,58.61
2017-02-26T05:32:44.210Z,58.61
2017-02-26T05:33:46.456Z,58.61
2017-02-26T05:34:59.341Z,58.61
2017-02-26T05:35:49.394Z,58.61
2017-02-26T05:37:00.721Z,58.61
2017-02-26T05:37:51.764Z,58.61
2017-02-26T05:39:00.791Z,58.61
2017-02-26T05:39:44.601Z,58.62
2017-02-26T05:40:49.831Z,58.63
2017-02-26T05:41:45.203Z,58.62
2017-02-26T05:42:43.380Z,58.61
2017-02-26T05:43:46.176Z,58.60
2017-02-26T05:44:59.594Z,58.61
2017-02-26T05:45:58.730Z,58.61
2017-02-26T05:46:53.536Z,58.61
2017-02-26T05:47:50.772Z,58.63
2017-02-26T05:48:50.327Z,58.62
2017-02-26T05:49:53.580Z,58.61
2017-02-26T05:50:57.667Z,58.62
2017-02-26T05:51:50.289Z,58.61
2017-02-26T05:52:56.348Z,58.63
2017-02-26T05:54:17.953Z,58.63
2017-02-26T05:54:51.816Z,58.62
2017-02-26T05:55:51.835Z,58.62
2017-02-26T05:56:50.225Z,58.61
2017-02-26T05:57:51.133Z,58.63
2017-02-26T05:58:53.261Z,58.64
2017-02-26T05:59:45.926Z,58.64
2017-02-26T06:00:59.085Z,58.64
2017-02-26T06:01:45.015Z,58.64
2017-02-26T06:02:57.310Z,58.64
2017-02-26T06:03:57.199Z,58.63
2017-02-26T06:04:50.196Z,58.63
2017-02-26T06:05:50.051Z,58.63
2017-02-26T06:06:39.250Z,58.63
2017-02-26T06:07:27.757Z,58.64
2017-02-26T06:08:27.754Z,58.63
2017-02-26T06:09:33.202Z,58.64
2017-02-26T06:10:27.280Z,58.64
2017-02-26T06:11:27.049Z,58.64
2017-02-26T06:12:36.884Z,58.65
2017-02-26T06:13:18.972Z,58.64
2017-02-26T06:14:27.033Z,58.64
2017-02-26T06:15:22.878Z,58.65
2017-02-26T06:16:38.184Z,58.64
2017-02-26T06:17:30.322Z,58.65
2017-02-26T06:18:22.981Z,58.65
2017-02-26T06:19:34.564Z,58.66
2017-02-26T06:20:31.339Z,58.65
2017-02-26T06:21:33.181Z,58.66
2017-02-26T06:22:30.133Z,58.66
2017-02-26T06:23:22.546Z,58.67
2017-02-26T06:24:26.845Z,58.67
2017-02-26T06:25:32.219Z,58.68
2017-02-26T06:26:13.589Z,58.68
2017-02-26T06:27:49.845Z,58.68
2017-02-26T06:29:00.052Z,58.67
2017-02-26T06:29:47.815Z,58.68
2017-02-26T06:30:56.318Z,58.66
2017-02-26T06:31:50.284Z,58.67
2017-02-26T06:32:44.811Z,58.65
2017-02-26T06:33:48.772Z,57.91
2017-02-26T06:34:49.131Z,57.98
2017-02-26T06:35:45.375Z,58.43
2017-02-26T06:37:27.570Z,58.54
2017-02-26T06:37:59.780Z,58.59
2017-02-26T06:38:45.768Z,58.61
2017-02-26T06:40:00.110Z,58.63
2017-02-26T06:40:44.904Z,58.64
2017-02-26T06:42:00.108Z,58.66
2017-02-26T06:42:58.865Z,58.65
2017-02-26T06:44:17.227Z,58.67
2017-02-26T06:44:44.703Z,58.66
2017-02-26T06:45:49.540Z,58.67
2017-02-26T06:46:46.052Z,58.66
2017-02-26T06:48:00.025Z,58.68
2017-02-26T06:48:50.079Z,58.67
2017-02-26T06:49:45.611Z,58.67
2017-02-26T06:51:04.675Z,58.68
2017-02-26T06:52:04.066Z,58.69
2017-02-26T06:52:57.634Z,58.68
2017-02-26T06:53:50.207Z,58.69
2017-02-26T06:55:00.891Z,58.69
2017-02-26T06:55:49.497Z,58.69
2017-02-26T06:56:54.238Z,58.70
2017-02-26T06:58:00.336Z,58.70
2017-02-26T06:58:50.995Z,58.70
2017-02-26T06:59:57.693Z,58.70
2017-02-26T07:00:49.619Z,58.69
2017-02-26T07:01:50.912Z,58.70
2017-02-26T07:02:51.465Z,58.70
2017-02-26T07:03:50.448Z,58.70
2017-02-26T07:04:49.879Z,58.71
2017-02-26T07:06:06.172Z,58.70
2017-02-26T07:06:45.299Z,58.70
2017-02-26T07:07:58.910Z,58.71
2017-02-26T07:08:57.851Z,58.70
2017-02-26T07:09:44.756Z,58.70
2017-02-26T07:10:45.694Z,58.70
2017-02-26T07:11:54.059Z,58.71
2017-02-26T07:12:49.541Z,58.70
2017-02-26T07:13:50.642Z,58.71
2017-02-26T07:14:50.618Z,58.71
2017-02-26T07:15:48.859Z,58.72
2017-02-26T07:16:49.419Z,58.72
2017-02-26T07:17:50.041Z,58.72
2017-02-26T07:18:59.107Z,58.72
2017-02-26T07:19:45.468Z,58.72
2017-02-26T07:20:49.561Z,58.73
2017-02-26T07:21:45.866Z,58.72
2017-02-26T07:22:55.150Z,58.73
2017-02-26T07:23:47.374Z,58.73
2017-02-26T07:24:47.614Z,58.73
2017-02-26T07:25:46.028Z,58.73
2017-02-26T07:26:52.069Z,58.73
2017-02-26T07:27:41.818Z,58.72
2017-02-26T07:28:35.115Z,58.73
2017-02-26T07:29:27.515Z,58.73
2017-02-26T07:30:38.848Z,58.72
2017-02-26T07:31:26.381Z,58.73
2017-02-26T07:32:29.268Z,58.74
2017-02-26T07:33:31.019Z,58.74
2017-02-26T07:34:39.779Z,58.75
2017-02-26T07:35:28.800Z,58.75
2017-02-26T07:36:28.429Z,58.75
2017-02-26T07:37:45.033Z,58.76
2017-02-26T07:38:52.003Z,58.75
2017-02-26T07:39:49.815Z,58.74
2017-02-26T07:40:52.239Z,58.75
2017-02-26T07:41:45.271Z,58.76
2017-02-26T07:42:49.592Z,58.68
2017-02-26T07:43:54.614Z,58.78
2017-02-26T07:45:17.261Z,58.79
2017-02-26T07:45:45.880Z,58.78
2017-02-26T07:46:49.323Z,58.78
2017-02-26T07:47:39.957Z,58.78
2017-02-26T07:49:05.123Z,58.79
2017-02-26T07:49:48.719Z,58.79
2017-02-26T07:50:45.041Z,58.79
2017-02-26T07:51:50.692Z,58.80
2017-02-26T07:52:54.734Z,58.79
2017-02-26T07:53:49.640Z,58.80
2017-02-26T07:54:43.447Z,58.80
2017-02-26T07:55:50.285Z,58.80
2017-02-26T07:56:49.599Z,58.80
2017-02-26T07:57:49.505Z,58.79
2017-02-26T07:58:49.410Z,58.81
2017-02-26T07:59:55.334Z,58.80
2017-02-26T08:00:49.810Z,58.81
2017-02-26T08:01:47.737Z,58.82
2017-02-26T08:02:50.591Z,58.81
2017-02-26T08:03:47.252Z,58.82
2017-02-26T08:04:57.236Z,58.82
2017-02-26T08:05:49.089Z,58.83
2017-02-26T08:06:53.752Z,58.82
2017-02-26T08:07:50.566Z,58.83
2017-02-26T08:08:50.241Z,58.84
2017-02-26T08:10:00.989Z,58.83
2017-02-26T08:10:49.741Z,58.83
2017-02-26T08:12:16.558Z,58.83
2017-02-26T08:12:59.969Z,58.83
2017-02-26T08:14:59.777Z,58.83
2017-02-26T08:15:45.446Z,58.83
2017-02-26T08:16:45.205Z,58.84
2017-02-26T08:17:49.432Z,58.85
2017-02-26T08:18:51.903Z,58.84
2017-02-26T08:19:57.774Z,58.83
2017-02-26T08:20:49.350Z,58.82
2017-02-26T08:21:50.746Z,58.84
2017-02-26T08:23:00.965Z,58.83
2017-02-26T08:24:06.319Z,58.84
2017-02-26T08:24:45.241Z,58.85
2017-02-26T08:25:58.333Z,58.93
2017-02-26T08:26:47.637Z,59.01
2017-02-26T08:27:58.242Z,59.16
2017-02-26T08:28:43.035Z,59.30
2017-02-26T08:30:06.349Z,59.47
2017-02-26T08:30:52.055Z,59.57
2017-02-26T08:31:46.106Z,59.74
2017-02-26T08:33:09.772Z,59.85
2017-02-26T08:33:58.666Z,60.08
2017-02-26T08:34:49.418Z,60.21
2017-02-26T08:35:50.453Z,60.32
2017-02-26T08:36:48.870Z,60.42
2017-02-26T08:37:45.427Z,60.50
2017-02-26T08:38:28.596Z,60.57
2017-02-26T08:39:33.425Z,59.90
2017-02-26T08:40:28.147Z,59.83
2017-02-26T08:41:26.476Z,60.44
2017-02-26T08:42:32.265Z,60.61
2017-02-26T08:43:28.124Z,60.69
2017-02-26T08:44:29.859Z,60.71
2017-02-26T08:45:34.100Z,60.75
2017-02-26T08:46:22.247Z,60.77
2017-02-26T08:47:26.911Z,60.81
2017-02-26T08:48:32.935Z,60.82
2017-02-26T08:49:28.249Z,60.79
2017-02-26T08:50:34.259Z,60.77
2017-02-26T08:51:32.635Z,60.74
2017-02-26T08:52:37.509Z,60.77
2017-02-26T08:53:28.549Z,60.75
2017-02-26T08:54:35.151Z,60.80
2017-02-26T08:55:35.995Z,60.96
2017-02-26T08:56:32.775Z,61.11
2017-02-26T08:57:21.958Z,61.26
2017-02-26T08:58:32.208Z,61.36
2017-02-26T08:59:16.915Z,61.61
2017-02-26T09:00:43.788Z,61.58
2017-02-26T09:01:46.897Z,61.53
2017-02-26T09:02:47.663Z,61.50
2017-02-26T09:03:47.965Z,60.83
2017-02-26T09:04:52.148Z,60.84
2017-02-26T09:05:50.171Z,60.77
2017-02-26T09:06:52.632Z,60.70
2017-02-26T09:07:50.542Z,60.61
2017-02-26T09:09:06.160Z,60.81
2017-02-26T09:09:50.135Z,60.56
2017-02-26T09:10:45.944Z,60.48
2017-02-26T09:11:38.464Z,60.42
2017-02-26T09:12:44.890Z,60.34
2017-02-26T09:13:47.004Z,60.33
2017-02-26T09:14:51.151Z,60.26
2017-02-26T09:15:50.736Z,60.16
2017-02-26T09:16:48.378Z,60.12
2017-02-26T09:17:46.385Z,60.32
2017-02-26T09:19:30.544Z,60.91
2017-02-26T09:20:00.694Z,61.11
2017-02-26T09:20:39.758Z,61.15
2017-02-26T09:22:15.525Z,61.17
2017-02-26T09:22:55.004Z,61.19
2017-02-26T09:23:45.386Z,61.26
2017-02-26T09:24:49.949Z,61.25
2017-02-26T09:25:48.948Z,61.22
2017-02-26T09:26:55.446Z,61.25
2017-02-26T09:27:49.579Z,61.34
2017-02-26T09:28:49.719Z,61.34
2017-02-26T09:29:50.092Z,60.72
2017-02-26T09:31:06.300Z,60.49
2017-02-26T09:31:45.928Z,60.39
2017-02-26T09:32:47.573Z,60.44
2017-02-26T09:33:55.154Z,60.48
2017-02-26T09:34:54.101Z,60.60
2017-02-26T09:36:06.331Z,60.65
2017-02-26T09:36:51.059Z,60.68
2017-02-26T09:37:50.960Z,60.67
2017-02-26T09:38:49.119Z,60.66
2017-02-26T09:40:06.167Z,60.69
2017-02-26T09:40:47.511Z,60.70
2017-02-26T09:42:24.501Z,60.69
2017-02-26T09:42:57.417Z,60.59
2017-02-26T09:43:48.717Z,60.51
2017-02-26T09:44:46.152Z,60.34
2017-02-26T09:45:46.653Z,60.25
2017-02-26T09:46:52.777Z,60.06
2017-02-26T09:47:58.611Z,59.84
2017-02-26T09:48:47.807Z,59.75
2017-02-26T09:49:45.406Z,59.61
2017-02-26T09:50:52.151Z,59.46
2017-02-26T09:51:56.658Z,59.36
2017-02-26T09:52:49.481Z,59.29
2017-02-26T09:55:16.399Z,59.22
2017-02-26T09:55:39.033Z,59.20
2017-02-26T09:56:52.667Z,59.15
2017-02-26T09:58:03.708Z,59.13
2017-02-26T09:58:48.303Z,59.09
2017-02-26T09:59:50.696Z,59.07
2017-02-26T10:00:41.186Z,59.04
2017-02-26T10:01:19.233Z,59.03
2017-02-26T10:02:28.029Z,59.00
2017-02-26T10:03:31.991Z,58.98
2017-02-26T10:04:32.846Z,58.97
2017-02-26T10:05:27.769Z,58.96
2017-02-26T10:06:31.513Z,58.95
2017-02-26T10:07:25.398Z,58.94
2017-02-26T10:08:42.880Z,58.94
2017-02-26T10:09:27.764Z,58.93
2017-02-26T10:10:47.551Z,58.93
2017-02-26T10:11:41.539Z,58.93
2017-02-26T10:12:52.331Z,58.92
2017-02-26T10:13:44.010Z,58.92
2017-02-26T10:14:56.857Z,58.92
2017-02-26T10:15:45.251Z,58.92
2017-02-26T10:17:00.370Z,58.92
2017-02-26T10:17:49.684Z,58.94
2017-02-26T10:19:01.026Z,58.93
2017-02-26T10:19:55.695Z,58.94
2017-02-26T10:20:44.934Z,58.96
2017-02-26T10:21:45.544Z,58.95
2017-02-26T10:22:44.627Z,58.97
2017-02-26T10:23:59.449Z,58.97
2017-02-26T10:24:57.704Z,58.97
2017-02-26T10:25:52.098Z,58.98
2017-02-26T10:27:32.220Z,58.99
2017-02-26T10:27:43.742Z,59.00
2017-02-26T10:29:52.064Z,58.99
2017-02-26T10:30:03.627Z,59.00
2017-02-26T10:31:02.877Z,59.02
2017-02-26T10:31:44.194Z,59.02
2017-02-26T10:32:44.649Z,59.03
2017-02-26T10:33:49.183Z,59.04
2017-02-26T10:34:49.293Z,59.05
2017-02-26T10:35:59.359Z,59.04
2017-02-26T10:36:59.586Z,59.04
2017-02-26T10:37:44.732Z,59.06
2017-02-26T10:38:51.763Z,59.07
2017-02-26T10:40:04.394Z,59.08
2017-02-26T10:40:48.282Z,59.10
2017-02-26T10:41:46.426Z,59.10
2017-02-26T10:43:00.155Z,59.13
2017-02-26T10:43:46.883Z,59.11
2017-02-26T10:44:44.821Z,59.13
2017-02-26T10:45:39.387Z,59.13
2017-02-26T10:46:49.808Z,59.12
2017-02-26T10:47:51.161Z,59.12
2017-02-26T10:48:44.854Z,59.13
2017-02-26T10:49:50.329Z,59.14
2017-02-26T10:50:50.161Z,59.13
2017-02-26T10:51:57.823Z,59.14
2017-02-26T10:52:47.623Z,59.14
2017-02-26T10:53:50.900Z,59.16
2017-02-26T10:54:45.685Z,59.13
2017-02-26T10:55:49.876Z,59.12
2017-02-26T10:56:38.814Z,59.13
2017-02-26T10:57:49.232Z,59.13
2017-02-26T10:59:02.731Z,59.12
2017-02-26T10:59:46.918Z,59.12
2017-02-26T11:00:50.030Z,59.12
2017-02-26T11:01:56.860Z,59.12
2017-02-26T11:02:44.461Z,59.07
2017-02-26T11:04:06.280Z,59.09
2017-02-26T11:04:50.410Z,59.08
2017-02-26T11:05:48.012Z,59.10
2017-02-26T11:07:00.580Z,59.10
2017-02-26T11:07:58.459Z,59.10
2017-02-26T11:08:47.928Z,59.09
2017-02-26T11:10:07.221Z,59.10
2017-02-26T11:10:47.900Z,59.12
2017-02-26T11:11:50.290Z,59.13
2017-02-26T11:12:46.467Z,59.15
2017-02-26T11:13:59.975Z,59.15
2017-02-26T11:14:47.743Z,59.16
2017-02-26T11:16:16.118Z,59.18
2017-02-26T11:16:45.622Z,59.19
2017-02-26T11:17:49.665Z,59.20
2017-02-26T11:18:50.964Z,59.22
2017-02-26T11:19:49.018Z,59.20
2017-02-26T11:20:49.884Z,59.21
2017-02-26T11:22:24.588Z,59.24
2017-02-26T11:22:58.138Z,59.31
2017-02-26T11:23:59.792Z,59.31
2017-02-26T11:24:55.574Z,59.31
2017-02-26T11:25:40.460Z,59.33
2017-02-26T11:27:06.165Z,59.33
2017-02-26T11:27:44.971Z,59.33
2017-02-26T11:28:48.540Z,59.33
2017-02-26T11:29:55.969Z,59.34
2017-02-26T11:30:40.379Z,59.36
2017-02-26T11:31:45.734Z,59.35
2017-02-26T11:32:44.827Z,59.35
2017-02-26T11:33:54.922Z,59.37
2017-02-26T11:34:54.159Z,59.49
2017-02-26T11:35:50.809Z,59.38
2017-02-26T11:36:57.735Z,59.38
2017-02-26T11:37:39.164Z,59.38
2017-02-26T11:38:28.838Z,59.38
2017-02-26T11:39:32.134Z,59.38
2017-02-26T11:40:32.377Z,59.57
2017-02-26T11:41:19.810Z,59.51
2017-02-26T11:42:30.714Z,59.53
2017-02-26T11:43:28.084Z,59.54
2017-02-26T11:44:31.186Z,59.55
2017-02-26T11:45:20.786Z,59.56
2017-02-26T11:46:37.807Z,59.57
2017-02-26T11:47:44.383Z,59.57
2017-02-26T11:48:43.907Z,59.55
2017-02-26T11:49:50.678Z,59.54
2017-02-26T11:50:54.945Z,59.51
2017-02-26T11:51:46.777Z,59.51
2017-02-26T11:52:55.594Z,59.49
2017-02-26T11:53:50.034Z,59.48
2017-02-26T11:55:02.641Z,59.48
2017-02-26T11:55:51.844Z,59.47
2017-02-26T11:57:04.748Z,59.47
2017-02-26T11:57:53.685Z,59.45
2017-02-26T11:58:58.231Z,59.44
2017-02-26T11:59:49.037Z,59.43
2017-02-26T12:00:58.220Z,59.42
2017-02-26T12:01:43.481Z,59.41
2017-02-26T12:02:50.349Z,59.40
2017-02-26T12:03:54.246Z,59.39
2017-02-26T12:04:50.800Z,59.39
2017-02-26T12:06:03.665Z,59.40
2017-02-26T12:06:58.283Z,59.40
2017-02-26T12:07:52.016Z,59.40
2017-02-26T12:09:04.159Z,59.38
2017-02-26T12:09:52.674Z,59.38
2017-02-26T12:10:49.127Z,59.35
2017-02-26T12:11:44.941Z,59.34
2017-02-26T12:12:49.578Z,59.31
2017-02-26T12:13:45.415Z,59.31
2017-02-26T12:15:00.156Z,59.30
2017-02-26T12:15:55.188Z,59.30
2017-02-26T12:17:00.143Z,59.32
2017-02-26T12:17:44.504Z,59.31
2017-02-26T12:18:40.048Z,59.32
2017-02-26T12:19:45.883Z,59.31
2017-02-26T12:20:56.554Z,59.30
2017-02-26T12:21:50.641Z,59.30
2017-02-26T12:22:59.062Z,59.29
2017-02-26T12:23:56.838Z,59.27
2017-02-26T12:24:59.772Z,59.26
2017-02-26T12:25:46.031Z,59.23
2017-02-26T12:26:50.713Z,59.20
2017-02-26T12:28:17.725Z,59.20
2017-02-26T12:28:50.864Z,59.19
2017-02-26T12:29:49.283Z,59.20
2017-02-26T12:30:42.088Z,59.18
2017-02-26T12:32:20.685Z,59.16
2017-02-26T12:33:31.164Z,59.15
2017-02-26T12:34:49.799Z,59.12
2017-02-26T12:35:50.428Z,59.09
2017-02-26T12:40:39.309Z,59.11
2017-02-26T12:41:20.751Z,59.04
2017-02-26T12:42:23.552Z,58.95
2017-02-26T12:43:29.287Z,59.01
2017-02-26T12:44:26.288Z,59.02
2017-02-26T12:45:23.759Z,59.04
2017-02-26T12:46:19.917Z,59.07
2017-02-26T12:47:37.744Z,59.08
2017-02-26T12:48:57.546Z,59.10
2017-02-26T12:49:43.669Z,59.11
2017-02-26T12:50:43.316Z,59.10
2017-02-26T12:51:50.174Z,59.11
2017-02-26T12:52:32.669Z,59.09
2017-02-26T12:53:50.558Z,59.09
2017-02-26T12:54:44.034Z,59.11
2017-02-26T12:55:32.000Z,59.10
2017-02-26T12:56:35.842Z,59.09
2017-02-26T12:57:49.476Z,59.11
2017-02-26T12:58:51.815Z,59.09
2017-02-26T12:59:50.950Z,59.10
2017-02-26T13:00:43.216Z,59.10
2017-02-26T13:01:21.811Z,59.06
2017-02-26T13:02:35.786Z,59.06